createdAt,value
2023-01-11T00:01:21.556Z,6.60
2023-01-11T00:03:48.586Z,6.60
2023-01-11T00:06:17.945Z,6.50
2023-01-11T00:08:46.061Z,6.60
2023-01-11T00:11:14.322Z,6.50
2023-01-11T00:13:41.439Z,6.50
2023-01-11T00:16:08.894Z,6.50
2023-01-11T00:18:37.663Z,6.50
2023-01-11T00:21:05.760Z,6.60
2023-01-11T00:23:33.509Z,6.60
2023-01-11T00:26:03.049Z,6.60
2023-01-11T00:28:29.885Z,6.60
2023-01-11T00:30:56.775Z,6.60
2023-01-11T00:33:23.842Z,6.70
2023-01-11T00:35:53.916Z,6.70
2023-01-11T00:38:40.016Z,6.70
2023-01-11T00:41:25.778Z,6.70
2023-01-11T00:44:11.325Z,6.70
2023-01-11T00:46:56.778Z,6.70
2023-01-11T00:49:24.034Z,6.70
2023-01-11T00:51:51.005Z,6.80
2023-01-11T00:54:17.848Z,6.80
2023-01-11T00:56:44.566Z,6.80
2023-01-11T00:59:11.322Z,6.80
2023-01-11T01:01:38.216Z,6.80
2023-01-11T01:04:05.198Z,6.80
2023-01-11T01:06:32.125Z,6.90
2023-01-11T01:08:59.003Z,6.80
2023-01-11T01:11:25.855Z,6.80
2023-01-11T01:14:11.345Z,6.90
2023-01-11T01:16:39.386Z,6.90
2023-01-11T01:19:07.308Z,6.90
2023-01-11T01:21:34.184Z,6.90
2023-01-11T01:24:00.930Z,6.90
2023-01-11T01:26:27.789Z,6.90
2023-01-11T01:28:54.651Z,6.90
2023-01-11T01:31:21.415Z,7.00
2023-01-11T01:33:48.208Z,6.90
2023-01-11T01:36:15.048Z,7.00
2023-01-11T01:38:42.080Z,7.00
2023-01-11T01:41:10.411Z,7.00
2023-01-11T01:43:53.966Z,7.00
2023-01-11T01:46:22.762Z,7.10
2023-01-11T01:48:58.484Z,7.10
2023-01-11T01:51:27.745Z,7.10
2023-01-11T01:53:56.758Z,7.10
2023-01-11T01:56:25.966Z,7.10
2023-01-11T01:58:57.656Z,7.20
2023-01-11T02:01:43.318Z,7.20
2023-01-11T02:04:13.295Z,7.20
2023-01-11T02:06:40.401Z,7.20
2023-01-11T02:09:11.850Z,7.20
2023-01-11T02:11:43.314Z,7.30
2023-01-11T02:14:12.335Z,7.30
2023-01-11T02:16:39.110Z,7.30
2023-01-11T02:19:08.398Z,7.30
2023-01-11T02:21:56.201Z,7.40
2023-01-11T02:24:32.188Z,7.40
2023-01-11T02:27:11.124Z,7.40
2023-01-11T02:29:46.582Z,7.40
2023-01-11T02:32:19.360Z,7.40
2023-01-11T02:34:59.264Z,7.40
2023-01-11T02:37:32.080Z,7.40
2023-01-11T02:40:00.794Z,7.40
2023-01-11T02:42:55.459Z,7.40
2023-01-11T02:45:28.461Z,7.40
2023-01-11T02:48:11.503Z,7.40
2023-01-11T02:50:42.449Z,7.40
2023-01-11T02:53:17.243Z,7.50
2023-01-11T02:55:49.415Z,7.50
2023-01-11T02:58:17.633Z,7.50
2023-01-11T03:00:44.787Z,7.50
2023-01-11T03:03:16.341Z,7.50
2023-01-11T03:05:50.482Z,7.50
2023-01-11T03:08:41.386Z,7.60
2023-01-11T03:11:11.782Z,7.60
2023-01-11T03:13:38.522Z,7.60
2023-01-11T03:16:14.634Z,7.60
2023-01-11T03:18:59.401Z,7.60
2023-01-11T03:21:44.907Z,7.60
2023-01-11T03:24:37.099Z,7.60
2023-01-11T03:27:07.253Z,7.60
2023-01-11T03:29:38.215Z,7.60
2023-01-11T03:32:14.277Z,7.60
2023-01-11T03:34:48.620Z,7.70
2023-01-11T03:37:18.459Z,7.60
2023-01-11T03:39:47.454Z,7.70
2023-01-11T03:42:16.942Z,7.70
2023-01-11T03:44:44.377Z,7.70
2023-01-11T03:47:12.670Z,7.70
2023-01-11T03:49:51.800Z,7.80
2023-01-11T03:52:20.884Z,7.80
2023-01-11T03:54:48.122Z,7.90
2023-01-11T03:57:23.358Z,7.90
2023-01-11T03:59:50.541Z,7.90
2023-01-11T04:02:28.161Z,7.90
2023-01-11T04:04:54.957Z,7.90
2023-01-11T04:07:21.723Z,7.90
2023-01-11T04:09:48.465Z,8.00
2023-01-11T04:12:15.378Z,7.90
2023-01-11T04:14:42.178Z,7.90
2023-01-11T04:17:09.238Z,7.90
2023-01-11T04:19:36.183Z,7.90
2023-01-11T04:22:02.976Z,7.90
2023-01-11T04:24:29.818Z,8.00
2023-01-11T04:26:56.553Z,8.00
2023-01-11T04:29:23.466Z,8.00
2023-01-11T04:31:50.247Z,8.00
2023-01-11T04:34:17.108Z,8.00
2023-01-11T04:36:43.885Z,8.00
2023-01-11T04:39:10.922Z,8.10
2023-01-11T04:41:56.880Z,8.00
2023-01-11T04:44:23.788Z,8.10
2023-01-11T04:46:50.802Z,8.10
2023-01-11T04:49:17.652Z,8.10
2023-01-11T04:51:44.466Z,8.10
2023-01-11T04:54:11.418Z,8.10
2023-01-11T04:56:38.265Z,8.10
2023-01-11T04:59:05.102Z,8.20
2023-01-11T05:01:32.001Z,8.20
2023-01-11T05:03:58.846Z,8.20
2023-01-11T05:06:25.966Z,8.30
2023-01-11T05:08:52.798Z,8.30
2023-01-11T05:11:19.663Z,8.30
2023-01-11T05:13:47.495Z,8.30
2023-01-11T05:16:14.309Z,8.30
2023-01-11T05:18:48.216Z,8.40
2023-01-11T05:21:16.093Z,8.40
2023-01-11T05:23:42.884Z,8.40
2023-01-11T05:26:10.952Z,8.50
2023-01-11T05:28:38.075Z,8.50
2023-01-11T05:31:05.184Z,8.50
2023-01-11T05:33:32.064Z,8.50
2023-01-11T05:36:06.470Z,8.50
2023-01-11T05:38:33.299Z,8.50
2023-01-11T05:41:01.326Z,8.60
2023-01-11T05:43:29.251Z,8.60
2023-01-11T05:45:56.574Z,8.60
2023-01-11T05:48:23.973Z,8.60
2023-01-11T05:50:51.744Z,8.70
2023-01-11T05:53:18.708Z,8.60
2023-01-11T05:55:56.978Z,8.60
2023-01-11T05:58:24.814Z,8.70
2023-01-11T06:00:52.744Z,8.70
2023-01-11T06:03:19.839Z,8.70
2023-01-11T06:05:48.685Z,8.70
2023-01-11T06:08:15.679Z,8.70
2023-01-11T06:10:43.142Z,8.80
2023-01-11T06:13:28.290Z,8.80
2023-01-11T06:15:58.090Z,8.80
2023-01-11T06:18:24.888Z,8.90
2023-01-11T06:20:53.904Z,8.90
2023-01-11T06:23:21.160Z,8.80
2023-01-11T06:25:48.135Z,8.90
2023-01-11T06:28:14.986Z,8.90
2023-01-11T06:30:41.845Z,9.00
2023-01-11T06:33:08.791Z,9.00
2023-01-11T06:35:41.139Z,9.00
2023-01-11T06:38:08.914Z,9.00
2023-01-11T06:40:37.319Z,9.00
2023-01-11T06:43:07.033Z,9.00
2023-01-11T06:45:34.891Z,9.10
2023-01-11T06:48:01.821Z,9.00
2023-01-11T06:50:28.703Z,9.10
2023-01-11T06:52:56.492Z,9.10
2023-01-11T06:55:24.124Z,9.10
2023-01-11T06:57:50.990Z,9.20
2023-01-11T07:00:18.295Z,9.10
2023-01-11T07:02:45.780Z,9.10
2023-01-11T07:05:12.897Z,9.20
2023-01-11T07:07:40.318Z,9.10
2023-01-11T07:10:09.165Z,9.20
2023-01-11T07:12:36.638Z,9.20
2023-01-11T07:15:04.798Z,9.20
2023-01-11T07:17:31.979Z,9.20
2023-01-11T07:19:58.828Z,9.30
2023-01-11T07:22:25.924Z,9.30
2023-01-11T07:24:52.749Z,9.30
2023-01-11T07:27:22.582Z,9.30
2023-01-11T07:29:49.509Z,9.30
2023-01-11T07:32:16.618Z,9.30
2023-01-11T07:34:43.640Z,9.30
2023-01-11T07:37:28.346Z,9.40
2023-01-11T07:39:56.076Z,9.40
2023-01-11T07:42:41.626Z,9.40
2023-01-11T07:45:08.633Z,9.40
2023-01-11T07:47:35.496Z,9.50
2023-01-11T07:50:02.455Z,9.50
2023-01-11T07:52:31.392Z,9.60
2023-01-11T07:55:02.452Z,9.60
2023-01-11T07:57:30.152Z,9.50
2023-01-11T07:59:58.009Z,9.50
2023-01-11T08:02:24.908Z,9.60
2023-01-11T08:04:51.818Z,9.60
2023-01-11T08:07:18.630Z,9.60
2023-01-11T08:09:45.486Z,9.60
2023-01-11T08:12:31.118Z,9.60
2023-01-11T08:14:58.098Z,9.60
2023-01-11T08:17:24.921Z,9.70
2023-01-11T08:19:51.869Z,9.70
2023-01-11T08:22:18.855Z,9.70
2023-01-11T08:24:45.684Z,9.70
2023-01-11T08:27:12.753Z,9.70
2023-01-11T08:29:40.678Z,9.80
2023-01-11T08:32:07.465Z,9.80
2023-01-11T08:34:34.707Z,9.80
2023-01-11T08:37:02.228Z,9.80
2023-01-11T08:39:32.149Z,9.80
2023-01-11T08:41:59.285Z,9.80
2023-01-11T08:44:33.887Z,9.90
2023-01-11T08:47:01.670Z,9.90
2023-01-11T08:49:30.401Z,9.90
2023-01-11T08:51:57.192Z,9.90
2023-01-11T08:54:24.989Z,10.00
2023-01-11T08:56:51.810Z,10.00
2023-01-11T08:59:20.014Z,10.00
2023-01-11T09:01:47.408Z,10.00
2023-01-11T09:04:24.087Z,10.00
2023-01-11T09:06:52.307Z,10.00
2023-01-11T09:09:19.137Z,10.00
2023-01-11T09:11:55.093Z,10.00
2023-01-11T09:14:22.988Z,10.00
2023-01-11T09:16:50.876Z,9.90
2023-01-11T09:19:17.661Z,10.00
2023-01-11T09:21:46.168Z,9.90
2023-01-11T09:24:13.177Z,10.00
2023-01-11T09:26:41.539Z,10.00
2023-01-11T09:29:08.438Z,10.00
2023-01-11T09:31:35.276Z,10.00
2023-01-11T09:34:02.211Z,10.00
2023-01-11T09:36:30.950Z,10.00
2023-01-11T09:39:00.368Z,10.00
2023-01-11T09:41:49.328Z,10.00
2023-01-11T09:44:19.521Z,10.00
2023-01-11T09:46:50.152Z,10.10
2023-01-11T09:49:20.208Z,10.10
2023-01-11T09:51:47.745Z,10.00
2023-01-11T09:54:18.361Z,10.00
2023-01-11T09:56:49.844Z,10.00
2023-01-11T09:59:34.599Z,10.00
2023-01-11T10:02:24.497Z,10.00
2023-01-11T10:05:23.403Z,10.00
2023-01-11T10:07:53.722Z,10.00
2023-01-11T10:18:38.956Z,10.10
2023-01-11T10:19:37.462Z,10.10
2023-01-11T10:22:12.146Z,10.20
2023-01-11T10:24:48.340Z,10.10
2023-01-11T10:27:24.178Z,10.10
2023-01-11T10:30:12.874Z,10.20
2023-01-11T10:32:54.054Z,10.10
2023-01-11T10:35:31.334Z,10.20
2023-01-11T10:38:30.819Z,10.20
2023-01-11T10:41:15.707Z,10.20
2023-01-11T10:43:44.175Z,10.10
2023-01-11T10:46:13.517Z,10.10
2023-01-11T10:48:41.990Z,10.10
2023-01-11T10:51:14.751Z,10.00
2023-01-11T10:53:47.681Z,10.10
2023-01-11T10:56:25.010Z,10.10
2023-01-11T10:59:07.433Z,10.10
2023-01-11T11:01:49.146Z,10.10
2023-01-11T11:04:39.052Z,10.10
2023-01-11T11:07:18.439Z,10.20
2023-01-11T11:09:54.823Z,10.10
2023-01-11T11:12:44.687Z,10.10
2023-01-11T11:15:15.601Z,10.10
2023-01-11T11:17:45.854Z,10.10
2023-01-11T11:20:12.691Z,10.10
2023-01-11T11:22:39.490Z,10.20
2023-01-11T11:25:14.526Z,10.10
2023-01-11T11:27:43.403Z,10.20
2023-01-11T11:30:11.219Z,10.10
2023-01-11T11:32:39.776Z,10.10
2023-01-11T11:35:08.025Z,10.10
2023-01-11T11:37:35.861Z,10.10
2023-01-11T11:40:02.844Z,10.20
2023-01-11T11:42:29.643Z,10.10
2023-01-11T11:45:14.734Z,10.10
2023-01-11T11:47:43.526Z,10.10
2023-01-11T11:50:41.994Z,10.10
2023-01-11T11:53:06.604Z,10.10
2023-01-11T11:55:34.283Z,10.10
2023-01-11T11:58:08.666Z,10.20
2023-01-11T12:00:41.538Z,10.20
2023-01-11T12:03:16.808Z,10.10
2023-01-11T12:06:05.366Z,10.10
2023-01-11T12:08:33.973Z,10.10
2023-01-11T12:11:06.418Z,10.10
2023-01-11T12:13:37.408Z,10.10
2023-01-11T12:16:05.609Z,10.10
2023-01-11T12:18:43.330Z,10.10
2023-01-11T12:21:11.300Z,10.10
2023-01-11T12:23:38.131Z,10.10
2023-01-11T12:26:10.800Z,10.10
2023-01-11T12:28:46.009Z,10.10
2023-01-11T12:31:25.104Z,10.10
2023-01-11T12:33:54.995Z,10.10
2023-01-11T12:36:51.201Z,10.10
2023-01-11T12:39:24.446Z,10.10
2023-01-11T12:41:57.411Z,10.10
2023-01-11T12:44:27.281Z,10.10
2023-01-11T12:46:57.166Z,10.10
2023-01-11T12:49:27.042Z,10.10
2023-01-11T12:51:56.884Z,10.10
2023-01-11T12:54:29.804Z,10.10
2023-01-11T12:56:56.619Z,10.10
2023-01-11T12:59:51.197Z,10.10
2023-01-11T13:02:41.233Z,10.10
2023-01-11T13:05:32.432Z,10.10
2023-01-11T13:08:16.435Z,10.00
2023-01-11T13:10:49.315Z,10.00
2023-01-11T13:13:20.207Z,10.00
2023-01-11T13:15:57.775Z,10.00
2023-01-11T13:18:32.937Z,10.00
2023-01-11T13:21:25.987Z,10.10
2023-01-11T13:23:55.122Z,10.10
2023-01-11T13:26:23.718Z,10.10
2023-01-11T13:29:13.883Z,10.10
2023-01-11T13:31:41.840Z,10.10
2023-01-11T13:34:24.881Z,10.00
2023-01-11T13:36:53.799Z,10.00
2023-01-11T13:39:28.534Z,10.00
2023-01-11T13:41:58.022Z,10.00
2023-01-11T13:44:27.836Z,9.90
2023-01-11T13:46:57.613Z,9.90
2023-01-11T13:49:24.463Z,9.90
2023-01-11T13:51:58.609Z,9.90
2023-01-11T13:54:27.069Z,9.90
2023-01-11T13:57:32.580Z,9.90
2023-01-11T14:00:03.417Z,9.90
2023-01-11T14:02:42.237Z,9.80
2023-01-11T14:05:17.075Z,9.80
2023-01-11T14:07:53.069Z,9.70
2023-01-11T14:10:24.558Z,9.70
2023-01-11T14:13:10.729Z,9.70
2023-01-11T14:15:40.642Z,9.70
2023-01-11T14:18:13.247Z,9.60
2023-01-11T14:21:02.156Z,9.60
2023-01-11T14:23:29.002Z,9.70
2023-01-11T14:26:06.471Z,9.60
2023-01-11T14:28:52.798Z,9.60
2023-01-11T14:31:35.372Z,9.60
2023-01-11T14:34:15.464Z,9.60
2023-01-11T14:37:01.137Z,9.50
2023-01-11T14:39:39.258Z,9.50
2023-01-11T14:42:09.400Z,9.40
2023-01-11T14:44:57.184Z,9.40
2023-01-11T14:47:25.182Z,9.40
2023-01-11T14:49:55.028Z,9.40
2023-01-11T14:52:38.505Z,9.30
2023-01-11T14:55:14.140Z,9.30
2023-01-11T14:57:42.118Z,9.30
2023-01-11T15:00:18.425Z,9.30
2023-01-11T15:02:45.975Z,9.30
2023-01-11T15:05:31.513Z,9.20
2023-01-11T15:08:21.756Z,9.20
2023-01-11T15:11:04.157Z,9.20
2023-01-11T15:13:34.784Z,9.20
2023-01-11T15:16:29.662Z,9.10
2023-01-11T15:18:56.780Z,9.10
2023-01-11T15:21:25.143Z,9.00
2023-01-11T15:23:57.230Z,9.00
2023-01-11T15:26:25.604Z,9.00
2023-01-11T15:29:00.445Z,9.00
2023-01-11T15:31:47.946Z,9.00
2023-01-11T15:34:22.538Z,8.90
2023-01-11T15:36:54.804Z,8.90
2023-01-11T15:39:48.169Z,8.90
2023-01-11T15:42:15.018Z,8.80
2023-01-11T15:44:41.893Z,8.90
2023-01-11T15:47:27.654Z,8.80
2023-01-11T15:49:58.065Z,8.80
2023-01-11T15:52:37.149Z,8.80
2023-01-11T15:55:10.165Z,8.80
2023-01-11T15:57:49.365Z,8.80
2023-01-11T16:00:34.860Z,8.70
2023-01-11T16:03:17.311Z,8.70
2023-01-11T16:05:57.566Z,8.70
2023-01-11T16:08:29.209Z,8.70
2023-01-11T16:11:11.495Z,8.60
2023-01-11T16:13:50.576Z,8.60
2023-01-11T16:16:27.048Z,8.60
2023-01-11T16:18:55.776Z,8.60
2023-01-11T16:21:31.102Z,8.50
2023-01-11T16:23:59.296Z,8.50
2023-01-11T16:26:26.369Z,8.50
2023-01-11T16:28:58.003Z,8.40
2023-01-11T16:31:25.540Z,8.50
2023-01-11T16:33:55.201Z,8.40
2023-01-11T16:36:29.655Z,8.40
2023-01-11T16:39:28.795Z,8.40
2023-01-11T16:42:18.686Z,8.40
2023-01-11T16:44:45.606Z,8.40
2023-01-11T16:47:21.735Z,8.40
2023-01-11T16:49:49.931Z,8.40
2023-01-11T16:52:34.835Z,8.40
2023-01-11T16:55:18.902Z,8.30
2023-01-11T16:57:48.800Z,8.30
2023-01-11T17:00:45.139Z,8.30
2023-01-11T17:03:25.352Z,8.30
2023-01-11T17:05:56.934Z,8.20
2023-01-11T17:08:31.694Z,8.20
2023-01-11T17:11:04.132Z,8.20
2023-01-11T17:13:53.868Z,8.20
2023-01-11T17:16:24.512Z,8.20
2023-01-11T17:19:06.770Z,8.20
2023-01-11T17:21:34.199Z,8.20
2023-01-11T17:24:03.394Z,8.20
2023-01-11T17:27:09.125Z,8.10
2023-01-11T17:29:38.300Z,8.10
2023-01-11T17:32:33.048Z,8.10
2023-01-11T17:35:02.215Z,8.10
2023-01-11T17:37:29.082Z,8.10
2023-01-11T17:40:04.617Z,8.10
2023-01-11T17:42:53.867Z,8.10
2023-01-11T17:45:22.937Z,8.10
2023-01-11T17:47:51.590Z,8.10
2023-01-11T17:50:21.517Z,8.00
2023-01-11T17:52:54.661Z,8.10
2023-01-11T17:55:23.848Z,8.00
2023-01-11T17:58:09.610Z,8.00
2023-01-11T18:00:37.704Z,8.00
2023-01-11T18:03:10.825Z,8.00
2023-01-11T18:05:37.821Z,7.90
2023-01-11T18:08:09.710Z,7.90
2023-01-11T18:10:38.610Z,7.90
2023-01-11T18:13:46.363Z,7.80
2023-01-11T18:16:19.388Z,7.90
2023-01-11T18:18:47.730Z,7.80
2023-01-11T18:21:40.367Z,7.80
2023-01-11T18:24:32.901Z,7.80
2023-01-11T18:27:15.386Z,7.80
2023-01-11T18:30:11.393Z,7.80
2023-01-11T18:32:41.549Z,7.80
2023-01-11T18:35:16.926Z,7.80
2023-01-11T18:37:47.895Z,7.80
2023-01-11T18:40:18.726Z,7.80
2023-01-11T18:42:46.856Z,7.80
2023-01-11T18:45:44.738Z,7.80
2023-01-11T18:48:34.842Z,7.80
2023-01-11T18:51:53.028Z,7.80
2023-01-11T18:54:43.171Z,7.80
2023-01-11T18:57:53.291Z,7.80
2023-01-11T19:00:20.322Z,7.80
2023-01-11T19:05:20.866Z,7.80
2023-01-11T19:07:49.021Z,7.80
2023-01-11T19:10:19.475Z,7.80
2023-01-11T19:12:46.678Z,7.80
2023-01-11T19:15:38.762Z,7.80
2023-01-11T19:18:09.003Z,7.80
2023-01-11T19:20:52.899Z,7.90
2023-01-11T19:23:20.917Z,7.90
2023-01-11T19:25:55.497Z,7.80
2023-01-11T19:28:27.308Z,7.90
2023-01-11T19:30:59.370Z,7.80
2023-01-11T19:33:26.409Z,7.80
2023-01-11T19:35:57.132Z,7.80
2023-01-11T19:38:39.839Z,7.70
2023-01-11T19:41:07.859Z,7.70
2023-01-11T19:43:50.565Z,7.70
2023-01-11T19:46:46.839Z,7.70
2023-01-11T19:49:17.546Z,7.70
2023-01-11T19:52:03.927Z,7.70
2023-01-11T19:54:36.801Z,7.70
2023-01-11T19:57:03.715Z,7.70
2023-01-11T19:59:30.667Z,7.60
2023-01-11T20:02:18.368Z,7.60
2023-01-11T20:05:14.239Z,7.60
2023-01-11T20:07:46.004Z,7.50
2023-01-11T20:10:18.594Z,7.50
2023-01-11T20:12:47.419Z,7.60
2023-01-11T20:15:15.305Z,7.60
2023-01-11T20:17:43.285Z,7.60
2023-01-11T20:21:25.977Z,7.60
2023-01-11T20:24:00.817Z,7.60
2023-01-11T20:26:30.727Z,7.50
2023-01-11T20:28:58.369Z,7.50
2023-01-11T20:32:40.270Z,7.50
2023-01-11T20:35:10.538Z,7.40
2023-01-11T20:37:37.603Z,7.50
2023-01-11T20:40:05.919Z,7.50
2023-01-11T20:42:32.852Z,7.50
2023-01-11T20:45:00.685Z,7.50
2023-01-11T20:47:27.602Z,7.40
2023-01-11T20:49:54.608Z,7.40
2023-01-11T20:52:21.692Z,7.40
2023-01-11T20:55:17.922Z,7.30
2023-01-11T20:57:46.712Z,7.30
2023-01-11T21:00:13.958Z,7.30
2023-01-11T21:02:40.988Z,7.30
2023-01-11T21:06:54.420Z,7.30
2023-01-11T21:08:32.381Z,7.30
2023-01-11T21:11:19.755Z,7.30
2023-01-11T21:21:00.567Z,7.30
2023-01-11T21:23:27.678Z,7.40
2023-01-11T21:25:54.568Z,7.30
2023-01-11T21:28:21.555Z,7.30
2023-01-11T21:30:48.536Z,7.30
2023-01-11T21:33:16.639Z,7.30
2023-01-11T21:35:43.562Z,7.40
2023-01-11T21:38:27.437Z,7.40
2023-01-11T21:41:44.431Z,7.30
2023-01-11T21:44:32.643Z,7.30
2023-01-11T21:47:04.799Z,7.30
2023-01-11T21:49:39.549Z,7.40
2023-01-11T21:52:12.030Z,7.40
2023-01-11T21:54:39.826Z,7.40
2023-01-11T21:57:07.313Z,7.40
2023-01-11T21:59:35.968Z,7.40
2023-01-11T22:02:03.117Z,7.40
2023-01-11T22:04:30.140Z,7.50
2023-01-11T22:06:58.070Z,7.50
2023-01-11T22:09:27.453Z,7.50
2023-01-11T22:11:55.397Z,7.50
2023-01-11T22:14:22.509Z,7.50
2023-01-11T22:16:49.870Z,7.50
2023-01-11T22:19:18.958Z,7.50
2023-01-11T22:21:45.911Z,7.50
2023-01-11T22:24:13.122Z,7.50
2023-01-11T22:26:41.198Z,7.50
2023-01-11T22:29:14.836Z,7.60
2023-01-11T22:31:45.931Z,7.50
2023-01-11T22:34:13.795Z,7.60
2023-01-11T22:36:47.702Z,7.60
2023-01-11T22:39:15.327Z,7.60
2023-01-11T22:41:45.345Z,7.60
2023-01-11T22:44:14.476Z,7.60
2023-01-11T22:46:41.832Z,7.60
2023-01-11T22:49:09.132Z,7.60
2023-01-11T22:51:42.456Z,7.60
2023-01-11T22:54:09.938Z,7.60
2023-01-11T22:56:42.095Z,7.70
2023-01-11T22:59:09.007Z,7.70
2023-01-11T23:01:43.530Z,7.70
2023-01-11T23:04:11.799Z,7.70
2023-01-11T23:06:39.882Z,7.70
2023-01-11T23:09:08.434Z,7.70
2023-01-11T23:11:58.966Z,7.70
2023-01-11T23:14:33.535Z,7.80
2023-01-11T23:17:06.764Z,7.70
2023-01-11T23:19:38.611Z,7.80
2023-01-11T23:22:05.675Z,7.80
2023-01-11T23:24:33.033Z,7.80
2023-01-11T23:27:00.018Z,7.80
2023-01-11T23:29:27.116Z,7.80
2023-01-11T23:31:53.929Z,7.80
2023-01-11T23:34:21.807Z,7.80
2023-01-11T23:36:53.434Z,7.80
2023-01-11T23:39:30.003Z,7.80
2023-01-11T23:42:15.481Z,7.80
2023-01-11T23:44:42.293Z,7.80
2023-01-11T23:47:23.651Z,7.80
2023-01-11T23:49:51.899Z,7.80
2023-01-11T23:52:23.109Z,7.80
2023-01-11T23:54:49.944Z,7.70
2023-01-11T23:57:17.546Z,7.70
2023-01-11T23:59:44.709Z,7.80
